createdAt,value
2023-04-02T00:02:31.412Z,4.63
2023-04-02T00:05:51.108Z,4.37
2023-04-02T00:08:56.154Z,4.57
2023-04-02T00:12:00.249Z,4.77
2023-04-02T00:15:02.008Z,4.27
2023-04-02T00:18:04.872Z,4.80
2023-04-02T00:21:21.134Z,5.00
2023-04-02T00:24:22.785Z,4.87
2023-04-02T00:27:24.647Z,5.03
2023-04-02T00:30:26.391Z,5.20
2023-04-02T00:33:31.407Z,4.97
2023-04-02T00:36:34.462Z,4.43
2023-04-02T00:39:41.419Z,4.60
2023-04-02T00:42:44.495Z,4.77
2023-04-02T00:45:51.108Z,4.77
2023-04-02T00:49:10.866Z,5.17
2023-04-02T00:52:20.416Z,4.80
2023-04-02T00:55:27.006Z,4.37
2023-04-02T00:58:35.441Z,4.83
2023-04-02T01:05:02.279Z,4.80
2023-04-02T01:08:19.740Z,4.50
2023-04-02T01:11:42.907Z,4.70
2023-04-02T01:15:04.195Z,4.53
2023-04-02T01:18:36.688Z,5.20
2023-04-02T01:21:44.454Z,4.77
2023-04-02T01:24:47.085Z,4.43
2023-04-02T01:28:06.430Z,5.60
2023-04-02T01:31:09.766Z,5.80
2023-04-02T01:34:16.437Z,5.37
2023-04-02T01:37:34.179Z,5.20
2023-04-02T01:40:43.576Z,6.77
2023-04-02T01:44:07.771Z,5.97
2023-04-02T01:47:15.396Z,5.53
2023-04-02T01:50:19.793Z,5.30
2023-04-02T01:53:24.105Z,5.23
2023-04-02T01:56:27.058Z,5.60
2023-04-02T01:59:32.075Z,5.20
2023-04-02T02:02:34.004Z,5.20
2023-04-02T02:05:36.425Z,5.50
2023-04-02T02:08:39.680Z,4.97
2023-04-02T02:11:41.721Z,4.50
2023-04-02T02:14:49.173Z,5.37
2023-04-02T02:17:55.181Z,4.60
2023-04-02T02:20:59.926Z,5.37
2023-04-02T02:24:04.751Z,4.67
2023-04-02T02:27:24.189Z,4.10
2023-04-02T02:30:32.298Z,4.20
2023-04-02T02:33:48.958Z,4.10
2023-04-02T02:37:00.133Z,4.10
2023-04-02T02:40:06.051Z,4.40
2023-04-02T02:43:12.820Z,4.43
2023-04-02T02:46:18.194Z,4.90
2023-04-02T02:49:28.316Z,4.33
2023-04-02T02:52:36.277Z,5.00
2023-04-02T02:55:38.383Z,4.10
2023-04-02T02:58:39.960Z,4.90
2023-04-02T03:01:43.270Z,4.73
2023-04-02T03:04:53.425Z,4.40
2023-04-02T03:07:57.679Z,4.17
2023-04-02T03:11:23.001Z,4.23
2023-04-02T03:14:32.570Z,4.37
2023-04-02T03:17:34.154Z,4.80
2023-04-02T03:21:06.524Z,4.87
2023-04-02T03:24:49.524Z,3.83
2023-04-02T03:27:56.586Z,4.20
2023-04-02T03:31:03.364Z,4.30
2023-04-02T03:34:13.618Z,4.00
2023-04-02T03:37:32.519Z,4.80
2023-04-02T03:40:44.586Z,4.10
2023-04-02T03:43:51.220Z,4.70
2023-04-02T03:46:57.610Z,4.37
2023-04-02T03:50:07.353Z,4.70
2023-04-02T03:53:09.149Z,4.90
2023-04-02T03:56:27.362Z,4.73
2023-04-02T03:59:39.866Z,5.20
2023-04-02T04:02:46.259Z,4.77
2023-04-02T04:06:10.431Z,5.20
2023-04-02T04:09:33.254Z,4.80
2023-04-02T04:12:36.934Z,5.40
2023-04-02T04:15:47.990Z,5.07
2023-04-02T04:19:06.523Z,6.40
2023-04-02T04:22:19.012Z,6.10
2023-04-02T04:25:33.856Z,6.90
2023-04-02T04:29:16.498Z,6.10
2023-04-02T04:32:27.287Z,6.27
2023-04-02T04:35:39.989Z,7.20
2023-04-02T04:38:49.210Z,6.73
2023-04-02T04:41:53.302Z,7.03
2023-04-02T04:45:13.331Z,7.07
2023-04-02T04:48:22.676Z,7.40
2023-04-02T04:51:47.995Z,6.83
2023-04-02T04:54:49.815Z,6.33
2023-04-02T04:57:56.559Z,8.17
2023-04-02T05:01:12.237Z,8.37
2023-04-02T05:04:32.518Z,7.60
2023-04-02T05:07:48.954Z,7.83
2023-04-02T05:11:00.027Z,7.80
2023-04-02T05:14:06.593Z,8.90
2023-04-02T05:17:16.881Z,8.30
2023-04-02T05:20:31.693Z,9.77
2023-04-02T05:23:49.766Z,8.73
2023-04-02T05:26:53.318Z,11.00
2023-04-02T05:30:07.101Z,10.33
2023-04-02T05:33:30.979Z,10.10
2023-04-02T05:36:33.320Z,9.80
2023-04-02T05:39:35.118Z,9.23
2023-04-02T05:42:38.045Z,9.60
2023-04-02T05:45:43.481Z,9.30
2023-04-02T05:48:51.551Z,8.70
2023-04-02T05:51:59.003Z,8.10
2023-04-02T05:55:12.795Z,8.10
2023-04-02T05:58:35.426Z,7.57
2023-04-02T06:01:47.257Z,8.53
2023-04-02T06:05:11.972Z,9.00
2023-04-02T06:08:21.023Z,7.57
2023-04-02T06:11:32.589Z,8.53
2023-04-02T06:14:34.230Z,8.00
2023-04-02T06:17:52.604Z,8.20
2023-04-02T06:20:55.027Z,7.53
2023-04-02T06:24:01.728Z,7.53
2023-04-02T06:27:08.406Z,7.03
2023-04-02T06:30:18.661Z,7.53
2023-04-02T06:33:20.429Z,7.50
2023-04-02T06:36:24.071Z,7.30
2023-04-02T06:39:27.370Z,7.70
2023-04-02T06:42:36.595Z,7.27
2023-04-02T06:45:41.988Z,7.23
2023-04-02T06:48:44.822Z,7.53
2023-04-02T06:51:48.816Z,7.37
2023-04-02T06:54:50.692Z,7.03
2023-04-02T06:57:52.288Z,7.00
2023-04-02T07:00:54.509Z,7.00
2023-04-02T07:03:56.869Z,6.57
2023-04-02T07:06:58.695Z,6.37
2023-04-02T07:10:00.345Z,5.70
2023-04-02T07:13:02.484Z,6.50
2023-04-02T07:16:04.559Z,6.87
2023-04-02T07:19:06.750Z,6.73
2023-04-02T07:22:08.350Z,6.27
2023-04-02T07:25:10.931Z,5.70
2023-04-02T07:28:14.528Z,6.37
2023-04-02T07:31:34.149Z,6.23
2023-04-02T07:34:36.033Z,6.73
2023-04-02T07:37:38.717Z,6.87
2023-04-02T07:40:40.568Z,5.50
2023-04-02T07:43:43.000Z,5.90
2023-04-02T07:46:44.613Z,5.97
2023-04-02T07:49:46.935Z,6.13
2023-04-02T07:52:48.711Z,6.30
2023-04-02T07:55:52.856Z,8.17
2023-04-02T07:58:54.781Z,2.60
2023-04-02T08:01:56.430Z,1.10
2023-04-02T08:04:58.046Z,1.40
2023-04-02T08:07:59.622Z,1.00
2023-04-02T08:11:01.272Z,1.20
2023-04-02T08:14:02.908Z,1.67
2023-04-02T08:17:04.676Z,1.30
2023-04-02T08:20:08.008Z,1.20
2023-04-02T08:23:16.919Z,0.90
2023-04-02T08:26:18.861Z,1.10
2023-04-02T08:29:21.336Z,1.00
2023-04-02T08:32:24.040Z,0.80
2023-04-02T08:35:26.427Z,1.10
2023-04-02T08:38:28.008Z,1.00
2023-04-02T08:41:34.292Z,0.90
2023-04-02T08:44:57.581Z,1.00
2023-04-02T08:48:03.266Z,1.00
2023-04-02T08:51:07.955Z,0.77
2023-04-02T08:54:21.492Z,0.80
2023-04-02T08:57:36.888Z,0.70
2023-04-02T09:00:48.758Z,0.83
2023-04-02T09:03:51.900Z,0.77
2023-04-02T09:06:56.152Z,0.80
2023-04-02T09:09:58.153Z,0.63
2023-04-02T09:13:00.973Z,0.90
2023-04-02T09:16:12.273Z,0.97
2023-04-02T09:19:19.391Z,1.10
2023-04-02T09:22:27.039Z,0.80
2023-04-02T09:25:32.086Z,0.97
2023-04-02T09:28:33.682Z,0.90
2023-04-02T09:31:44.411Z,0.83
2023-04-02T09:34:46.776Z,1.00
2023-04-02T09:37:54.949Z,1.03
2023-04-02T09:41:01.462Z,1.20
2023-04-02T09:44:23.225Z,1.20
2023-04-02T09:47:27.190Z,1.10
2023-04-02T09:50:33.358Z,1.47
2023-04-02T09:53:39.897Z,0.90
2023-04-02T09:57:03.470Z,1.07
2023-04-02T10:00:32.695Z,1.30
2023-04-02T10:03:34.913Z,1.77
2023-04-02T10:06:36.675Z,1.50
2023-04-02T10:09:38.776Z,1.80
2023-04-02T10:12:42.095Z,1.10
2023-04-02T10:15:50.598Z,1.30
2023-04-02T10:19:16.989Z,1.30
2023-04-02T10:22:21.575Z,1.30
2023-04-02T10:25:28.470Z,1.57
2023-04-02T10:28:45.343Z,1.77
2023-04-02T10:31:56.253Z,1.67
2023-04-02T10:35:03.419Z,1.63
2023-04-02T10:38:26.190Z,1.50
2023-04-02T10:41:47.058Z,1.20
2023-04-02T10:45:00.414Z,1.43
2023-04-02T10:48:28.718Z,1.90
2023-04-02T10:51:48.657Z,1.30
2023-04-02T10:54:55.438Z,1.70
2023-04-02T10:58:03.653Z,1.87
2023-04-02T11:01:13.281Z,1.47
2023-04-02T11:04:21.121Z,1.37
2023-04-02T11:07:27.009Z,1.20
2023-04-02T11:10:31.937Z,1.60
2023-04-02T11:13:50.024Z,1.47
2023-04-02T11:16:54.186Z,1.60
2023-04-02T11:20:34.341Z,1.40
2023-04-02T11:23:51.137Z,1.50
2023-04-02T11:26:53.799Z,1.40
2023-04-02T11:30:24.499Z,1.57
2023-04-02T11:33:44.599Z,1.20
2023-04-02T11:36:53.524Z,1.60
2023-04-02T11:39:58.283Z,1.50
2023-04-02T11:43:38.160Z,1.20
2023-04-02T11:46:42.007Z,1.40
2023-04-02T11:49:55.695Z,1.40
2023-04-02T11:53:02.801Z,1.40
2023-04-02T11:56:29.032Z,1.50
2023-04-02T11:59:46.814Z,1.53
2023-04-02T12:03:17.072Z,1.40
2023-04-02T12:06:47.569Z,1.40
2023-04-02T12:09:58.956Z,1.60
2023-04-02T12:13:00.709Z,1.50
2023-04-02T12:16:03.146Z,1.50
2023-04-02T12:19:09.298Z,1.83
2023-04-02T12:22:20.231Z,1.70
2023-04-02T12:25:31.634Z,1.17
2023-04-02T12:28:38.109Z,1.53
2023-04-02T12:31:47.594Z,1.70
2023-04-02T12:34:51.253Z,2.07
2023-04-02T12:37:53.963Z,1.67
2023-04-02T12:40:58.542Z,2.03
2023-04-02T12:44:02.072Z,1.80
2023-04-02T12:47:04.945Z,1.50
2023-04-02T12:50:12.783Z,1.50
2023-04-02T12:53:21.447Z,2.00
2023-04-02T12:56:23.785Z,1.83
2023-04-02T12:59:36.276Z,1.67
2023-04-02T13:02:46.174Z,1.40
2023-04-02T13:05:56.337Z,2.00
2023-04-02T13:08:59.610Z,1.70
2023-04-02T13:12:02.322Z,2.10
2023-04-02T13:15:07.953Z,2.07
2023-04-02T13:18:12.594Z,2.43
2023-04-02T13:21:18.875Z,2.60
2023-04-02T13:24:28.887Z,2.50
2023-04-02T13:27:30.500Z,2.27
2023-04-02T13:30:32.138Z,2.80
2023-04-02T13:33:33.824Z,2.40
2023-04-02T13:36:35.552Z,2.40
2023-04-02T13:39:37.284Z,2.43
2023-04-02T13:42:42.022Z,2.70
2023-04-02T13:45:47.512Z,2.43
2023-04-02T13:48:51.316Z,2.70
2023-04-02T13:51:58.901Z,3.00
2023-04-02T13:55:01.195Z,3.00
2023-04-02T13:58:03.557Z,2.90
2023-04-02T14:01:05.407Z,2.80
2023-04-02T14:04:07.840Z,3.53
2023-04-02T14:07:47.980Z,2.60
2023-04-02T14:11:03.782Z,3.10
2023-04-02T14:14:24.098Z,2.87
2023-04-02T14:17:50.879Z,3.77
2023-04-02T14:21:11.439Z,3.30
2023-04-02T14:24:32.480Z,3.50
2023-04-02T14:27:44.676Z,3.50
2023-04-02T14:31:17.152Z,3.60
2023-04-02T14:34:48.360Z,3.13
2023-04-02T14:38:14.303Z,3.47
2023-04-02T14:41:34.757Z,3.93
2023-04-02T14:44:42.205Z,3.60
2023-04-02T14:47:55.701Z,3.67
2023-04-02T14:51:14.757Z,4.40
2023-04-02T14:54:34.552Z,4.80
2023-04-02T14:57:48.889Z,3.90
2023-04-02T15:01:13.697Z,5.30
2023-04-02T15:04:21.943Z,4.07
2023-04-02T15:07:28.640Z,4.13
2023-04-02T15:10:41.066Z,4.83
2023-04-02T15:13:42.625Z,4.60
2023-04-02T15:16:44.540Z,4.80
2023-04-02T15:19:46.951Z,4.50
2023-04-02T15:23:16.042Z,3.50
2023-04-02T15:26:23.386Z,4.43
2023-04-02T15:29:47.502Z,4.70
2023-04-02T15:32:49.796Z,4.00
2023-04-02T15:36:03.294Z,3.57
2023-04-02T15:39:42.965Z,4.60
2023-04-02T15:42:56.218Z,4.30
2023-04-02T15:46:16.290Z,4.80
2023-04-02T15:49:43.350Z,4.80
2023-04-02T15:52:58.851Z,5.20
2023-04-02T15:56:46.902Z,4.53
2023-04-02T16:00:26.434Z,4.80
2023-04-02T16:04:11.542Z,5.43
2023-04-02T16:07:23.233Z,4.37
2023-04-02T16:10:42.519Z,5.77
2023-04-02T16:13:45.015Z,3.70
2023-04-02T16:16:49.846Z,5.47
2023-04-02T16:19:56.014Z,5.07
2023-04-02T16:23:13.644Z,5.70
2023-04-02T16:26:24.271Z,5.10
2023-04-02T16:29:54.848Z,4.90
2023-04-02T16:33:10.074Z,5.80
2023-04-02T16:36:39.573Z,4.90
2023-04-02T16:39:53.468Z,4.70
2023-04-02T16:43:09.546Z,5.07
2023-04-02T16:46:39.322Z,4.67
2023-04-02T16:50:01.509Z,4.97
2023-04-02T16:53:28.148Z,4.60
2023-04-02T16:56:58.724Z,4.43
2023-04-02T17:00:04.134Z,4.47
2023-04-02T17:03:28.300Z,4.10
2023-04-02T17:07:13.242Z,3.20
2023-04-02T17:10:39.363Z,3.97
2023-04-02T17:13:43.258Z,4.00
2023-04-02T17:16:47.776Z,3.67
2023-04-02T17:19:55.975Z,3.30
2023-04-02T17:22:58.110Z,3.17
2023-04-02T17:26:06.735Z,3.70
2023-04-02T17:29:13.434Z,3.67
2023-04-02T17:32:22.873Z,3.70
2023-04-02T17:35:53.173Z,3.30
2023-04-02T17:38:57.898Z,2.97
2023-04-02T17:42:15.429Z,4.60
2023-04-02T17:45:36.702Z,3.80
2023-04-02T17:48:48.244Z,3.20
2023-04-02T17:52:02.177Z,3.47
2023-04-02T17:55:11.647Z,3.37
2023-04-02T17:58:34.960Z,3.60
2023-04-02T18:01:46.744Z,3.20
2023-04-02T18:05:17.056Z,3.43
2023-04-02T18:08:49.203Z,3.73
2023-04-02T18:12:24.651Z,3.50
2023-04-02T18:15:51.778Z,2.90
2023-04-02T18:19:03.572Z,3.60
2023-04-02T18:22:23.794Z,3.20
2023-04-02T18:25:34.567Z,3.47
2023-04-02T18:29:13.812Z,3.43
2023-04-02T18:32:40.522Z,3.27
2023-04-02T18:36:00.254Z,3.60
2023-04-02T18:39:20.588Z,4.10
2023-04-02T18:42:55.289Z,3.93
2023-04-02T18:46:18.202Z,3.70
2023-04-02T18:49:37.485Z,4.10
2023-04-02T18:52:41.066Z,3.67
2023-04-02T18:55:51.552Z,3.60
2023-04-02T18:59:06.538Z,3.50
2023-04-02T19:02:42.990Z,4.10
2023-04-02T19:05:57.360Z,4.10
2023-04-02T19:09:02.949Z,4.07
2023-04-02T19:12:16.331Z,3.30
2023-04-02T19:15:20.098Z,3.67
2023-04-02T19:18:36.424Z,3.50
2023-04-02T19:22:17.974Z,3.80
2023-04-02T19:25:45.411Z,3.93
2023-04-02T19:29:03.697Z,3.93
2023-04-02T19:32:36.559Z,4.63
2023-04-02T19:35:55.424Z,3.90
2023-04-02T19:39:25.893Z,4.33
2023-04-02T19:42:30.708Z,4.17
2023-04-02T19:45:54.321Z,3.60
2023-04-02T19:49:05.770Z,3.40
2023-04-02T19:52:07.391Z,3.97
2023-04-02T19:55:09.286Z,3.60
2023-04-02T19:58:28.718Z,3.53
2023-04-02T20:01:30.495Z,3.70
2023-04-02T20:04:32.460Z,3.50
2023-04-02T20:07:34.093Z,3.40
2023-04-02T20:10:35.984Z,4.47
2023-04-02T20:13:37.728Z,3.27
2023-04-02T20:16:39.443Z,3.73
2023-04-02T20:19:41.234Z,3.90
2023-04-02T20:22:42.877Z,3.30
2023-04-02T20:25:53.011Z,3.00
2023-04-02T20:28:54.815Z,2.87
2023-04-02T20:31:56.458Z,3.83
2023-04-02T20:34:58.121Z,4.50
2023-04-02T20:38:00.197Z,4.40
2023-04-02T20:41:03.139Z,3.80
2023-04-02T20:44:04.720Z,3.50
2023-04-02T20:47:07.952Z,3.77
2023-04-02T20:50:10.046Z,4.67
2023-04-02T20:53:11.665Z,3.73
2023-04-02T20:56:16.041Z,5.37
2023-04-02T20:59:17.874Z,3.90
2023-04-02T21:02:19.504Z,4.17
2023-04-02T21:05:21.082Z,3.60
2023-04-02T21:08:22.759Z,3.80
2023-04-02T21:11:26.082Z,3.47
2023-04-02T21:14:27.708Z,3.93
2023-04-02T21:17:29.509Z,3.37
2023-04-02T21:20:32.193Z,2.87
2023-04-02T21:23:34.230Z,3.50
2023-04-02T21:26:38.446Z,3.40
2023-04-02T21:29:40.217Z,3.73
2023-04-02T21:32:41.901Z,3.60
2023-04-02T21:35:43.588Z,3.53
2023-04-02T21:38:47.973Z,3.30
2023-04-02T21:41:52.182Z,3.50
2023-04-02T21:44:53.826Z,3.07
2023-04-02T21:47:55.528Z,3.60
2023-04-02T21:51:05.638Z,3.20
2023-04-02T21:54:07.919Z,3.50
2023-04-02T21:57:09.947Z,3.33
2023-04-02T22:00:13.724Z,3.00
2023-04-02T22:03:25.054Z,3.40
2023-04-02T22:06:37.953Z,3.43
2023-04-02T22:09:39.557Z,3.23
2023-04-02T22:12:41.180Z,3.53
2023-04-02T22:15:42.848Z,3.40
2023-04-02T22:18:45.697Z,3.30
2023-04-02T22:21:47.426Z,3.10
2023-04-02T22:24:49.043Z,3.20
2023-04-02T22:27:51.858Z,2.93
2023-04-02T22:30:54.841Z,3.27
2023-04-02T22:33:57.437Z,3.40
2023-04-02T22:36:59.089Z,3.33
2023-04-02T22:40:00.844Z,3.10
2023-04-02T22:43:02.676Z,3.30
2023-04-02T22:46:06.433Z,3.20
2023-04-02T22:49:08.121Z,4.20
2023-04-02T22:52:09.780Z,3.57
2023-04-02T22:55:15.069Z,3.30
2023-04-02T22:58:16.694Z,4.00
2023-04-02T23:01:30.408Z,3.53
2023-04-02T23:04:31.997Z,3.60
2023-04-02T23:07:36.986Z,3.43
2023-04-02T23:10:38.679Z,3.67
2023-04-02T23:13:41.777Z,3.37
2023-04-02T23:16:43.442Z,4.17
2023-04-02T23:19:45.061Z,3.90
2023-04-02T23:22:46.649Z,3.77
2023-04-02T23:25:48.236Z,4.10
2023-04-02T23:28:50.715Z,3.97
2023-04-02T23:31:52.483Z,3.90
2023-04-02T23:34:54.263Z,4.50
2023-04-02T23:37:55.828Z,3.90
2023-04-02T23:40:57.515Z,3.40
2023-04-02T23:43:59.449Z,3.67
2023-04-02T23:47:02.209Z,3.90
2023-04-02T23:50:04.195Z,4.03
2023-04-02T23:53:05.760Z,4.00
2023-04-02T23:56:07.604Z,3.70
2023-04-02T23:59:09.356Z,3.57
